sensor_id;sensor_type;location;lat;lon;timestamp;P1;durP1;ratioP1;P2;durP2;ratioP2
14619;SDS011;32125;48.518;9.050;2023-05-27T00:02:02;10.77;;;8.20;;
14619;SDS011;32125;48.518;9.050;2023-05-27T00:04:30;12.57;;;8.30;;
14619;SDS011;32125;48.518;9.050;2023-05-27T00:06:56;10.43;;;7.83;;
14619;SDS011;32125;48.518;9.050;2023-05-27T00:09:22;12.67;;;8.03;;
14619;SDS011;32125;48.518;9.050;2023-05-27T00:11:48;11.07;;;7.80;;
14619;SDS011;32125;48.518;9.050;2023-05-27T00:14:14;10.67;;;7.27;;
14619;SDS011;32125;48.518;9.050;2023-05-27T00:16:42;7.53;;;6.70;;
14619;SDS011;32125;48.518;9.050;2023-05-27T00:19:08;9.87;;;7.60;;
14619;SDS011;32125;48.518;9.050;2023-05-27T00:21:37;10.10;;;6.97;;
14619;SDS011;32125;48.518;9.050;2023-05-27T00:24:03;10.40;;;7.83;;
14619;SDS011;32125;48.518;9.050;2023-05-27T00:26:30;9.37;;;6.80;;
14619;SDS011;32125;48.518;9.050;2023-05-27T00:28:56;9.17;;;6.83;;
14619;SDS011;32125;48.518;9.050;2023-05-27T00:31:22;10.17;;;6.93;;
14619;SDS011;32125;48.518;9.050;2023-05-27T00:33:49;11.37;;;6.87;;
14619;SDS011;32125;48.518;9.050;2023-05-27T00:36:17;13.80;;;7.67;;
14619;SDS011;32125;48.518;9.050;2023-05-27T00:38:43;9.27;;;7.60;;
14619;SDS011;32125;48.518;9.050;2023-05-27T00:41:10;9.73;;;6.60;;
14619;SDS011;32125;48.518;9.050;2023-05-27T00:43:37;8.90;;;6.27;;
14619;SDS011;32125;48.518;9.050;2023-05-27T00:46:03;11.77;;;6.87;;
14619;SDS011;32125;48.518;9.050;2023-05-27T00:48:29;12.10;;;7.13;;
14619;SDS011;32125;48.518;9.050;2023-05-27T00:50:55;15.07;;;7.33;;
14619;SDS011;32125;48.518;9.050;2023-05-27T00:53:21;9.47;;;7.33;;
14619;SDS011;32125;48.518;9.050;2023-05-27T00:55:53;13.27;;;6.87;;
14619;SDS011;32125;48.518;9.050;2023-05-27T00:58:19;9.87;;;6.77;;
14619;SDS011;32125;48.518;9.050;2023-05-27T01:00:46;8.27;;;6.30;;
14619;SDS011;32125;48.518;9.050;2023-05-27T01:03:13;10.00;;;6.67;;
14619;SDS011;32125;48.518;9.050;2023-05-27T01:05:40;8.63;;;6.40;;
14619;SDS011;32125;48.518;9.050;2023-05-27T01:12:59;10.10;;;5.87;;
14619;SDS011;32125;48.518;9.050;2023-05-27T01:15:29;9.97;;;6.73;;
14619;SDS011;32125;48.518;9.050;2023-05-27T01:17:59;10.50;;;6.23;;
14619;SDS011;32125;48.518;9.050;2023-05-27T01:20:28;8.10;;;5.97;;
14619;SDS011;32125;48.518;9.050;2023-05-27T01:22:54;12.23;;;6.97;;
14619;SDS011;32125;48.518;9.050;2023-05-27T01:25:22;10.20;;;6.53;;
14619;SDS011;32125;48.518;9.050;2023-05-27T01:27:48;11.70;;;6.60;;
14619;SDS011;32125;48.518;9.050;2023-05-27T01:30:16;10.80;;;6.33;;
14619;SDS011;32125;48.518;9.050;2023-05-27T01:32:50;8.47;;;5.97;;
14619;SDS011;32125;48.518;9.050;2023-05-27T01:35:42;11.10;;;6.67;;
14619;SDS011;32125;48.518;9.050;2023-05-27T01:38:12;8.70;;;6.33;;
14619;SDS011;32125;48.518;9.050;2023-05-27T01:40:40;11.83;;;6.63;;
14619;SDS011;32125;48.518;9.050;2023-05-27T01:43:07;10.03;;;6.57;;
14619;SDS011;32125;48.518;9.050;2023-05-27T01:45:36;11.10;;;6.90;;
14619;SDS011;32125;48.518;9.050;2023-05-27T01:48:02;10.50;;;6.20;;
14619;SDS011;32125;48.518;9.050;2023-05-27T01:50:28;8.50;;;6.37;;
14619;SDS011;32125;48.518;9.050;2023-05-27T01:52:55;10.00;;;5.63;;
14619;SDS011;32125;48.518;9.050;2023-05-27T01:55:21;11.27;;;6.40;;
14619;SDS011;32125;48.518;9.050;2023-05-27T01:57:47;9.53;;;6.17;;
14619;SDS011;32125;48.518;9.050;2023-05-27T02:00:13;12.40;;;6.17;;
14619;SDS011;32125;48.518;9.050;2023-05-27T02:02:42;10.40;;;5.80;;
14619;SDS011;32125;48.518;9.050;2023-05-27T02:05:08;8.50;;;5.70;;
14619;SDS011;32125;48.518;9.050;2023-05-27T02:07:35;11.50;;;6.37;;
14619;SDS011;32125;48.518;9.050;2023-05-27T02:10:01;11.00;;;6.20;;
14619;SDS011;32125;48.518;9.050;2023-05-27T02:12:27;12.80;;;6.17;;
14619;SDS011;32125;48.518;9.050;2023-05-27T02:14:57;9.70;;;6.53;;
14619;SDS011;32125;48.518;9.050;2023-05-27T02:17:23;10.20;;;6.70;;
14619;SDS011;32125;48.518;9.050;2023-05-27T02:19:49;9.33;;;6.67;;
14619;SDS011;32125;48.518;9.050;2023-05-27T02:22:15;10.00;;;6.57;;
14619;SDS011;32125;48.518;9.050;2023-05-27T02:24:42;11.17;;;6.90;;
14619;SDS011;32125;48.518;9.050;2023-05-27T02:27:08;12.47;;;8.20;;
14619;SDS011;32125;48.518;9.050;2023-05-27T02:29:34;9.87;;;7.37;;
14619;SDS011;32125;48.518;9.050;2023-05-27T02:32:00;9.63;;;7.47;;
14619;SDS011;32125;48.518;9.050;2023-05-27T02:34:26;12.10;;;7.90;;
14619;SDS011;32125;48.518;9.050;2023-05-27T02:36:54;10.43;;;8.40;;
14619;SDS011;32125;48.518;9.050;2023-05-27T02:39:20;13.23;;;8.00;;
14619;SDS011;32125;48.518;9.050;2023-05-27T02:41:46;9.13;;;7.50;;
14619;SDS011;32125;48.518;9.050;2023-05-27T02:44:14;9.80;;;7.83;;
14619;SDS011;32125;48.518;9.050;2023-05-27T02:46:43;11.47;;;7.97;;
14619;SDS011;32125;48.518;9.050;2023-05-27T02:49:11;10.33;;;7.53;;
14619;SDS011;32125;48.518;9.050;2023-05-27T02:51:37;13.10;;;8.43;;
14619;SDS011;32125;48.518;9.050;2023-05-27T02:54:05;15.50;;;8.10;;
14619;SDS011;32125;48.518;9.050;2023-05-27T02:56:31;10.93;;;8.13;;
14619;SDS011;32125;48.518;9.050;2023-05-27T02:58:57;9.50;;;7.70;;
14619;SDS011;32125;48.518;9.050;2023-05-27T03:01:23;12.13;;;8.17;;
14619;SDS011;32125;48.518;9.050;2023-05-27T03:03:49;9.83;;;8.13;;
14619;SDS011;32125;48.518;9.050;2023-05-27T03:06:15;11.23;;;8.10;;
14619;SDS011;32125;48.518;9.050;2023-05-27T03:08:41;11.43;;;8.00;;
14619;SDS011;32125;48.518;9.050;2023-05-27T03:11:07;11.33;;;7.50;;
14619;SDS011;32125;48.518;9.050;2023-05-27T03:13:33;12.53;;;7.87;;
14619;SDS011;32125;48.518;9.050;2023-05-27T03:15:59;11.33;;;8.00;;
14619;SDS011;32125;48.518;9.050;2023-05-27T03:18:26;14.37;;;8.13;;
14619;SDS011;32125;48.518;9.050;2023-05-27T03:20:52;14.40;;;8.27;;
14619;SDS011;32125;48.518;9.050;2023-05-27T03:23:18;10.57;;;7.73;;
14619;SDS011;32125;48.518;9.050;2023-05-27T03:25:44;11.67;;;8.03;;
14619;SDS011;32125;48.518;9.050;2023-05-27T03:28:11;12.07;;;8.30;;
14619;SDS011;32125;48.518;9.050;2023-05-27T03:30:38;11.07;;;8.47;;
14619;SDS011;32125;48.518;9.050;2023-05-27T03:33:08;11.10;;;8.40;;
14619;SDS011;32125;48.518;9.050;2023-05-27T03:35:34;12.77;;;8.13;;
14619;SDS011;32125;48.518;9.050;2023-05-27T03:38:00;11.27;;;8.10;;
14619;SDS011;32125;48.518;9.050;2023-05-27T03:40:28;12.30;;;8.20;;
14619;SDS011;32125;48.518;9.050;2023-05-27T03:42:54;10.83;;;8.43;;
14619;SDS011;32125;48.518;9.050;2023-05-27T03:45:22;10.97;;;8.13;;
14619;SDS011;32125;48.518;9.050;2023-05-27T03:47:48;15.17;;;8.10;;
14619;SDS011;32125;48.518;9.050;2023-05-27T03:50:14;11.93;;;8.33;;
14619;SDS011;32125;48.518;9.050;2023-05-27T03:52:44;11.20;;;8.40;;
14619;SDS011;32125;48.518;9.050;2023-05-27T03:55:13;14.77;;;7.53;;
14619;SDS011;32125;48.518;9.050;2023-05-27T03:57:39;11.80;;;7.23;;
14619;SDS011;32125;48.518;9.050;2023-05-27T04:00:05;11.37;;;8.10;;
14619;SDS011;32125;48.518;9.050;2023-05-27T04:02:33;10.50;;;7.73;;
14619;SDS011;32125;48.518;9.050;2023-05-27T04:04:58;10.40;;;7.43;;
14619;SDS011;32125;48.518;9.050;2023-05-27T04:07:25;10.13;;;7.27;;
14619;SDS011;32125;48.518;9.050;2023-05-27T04:09:54;12.63;;;8.30;;
14619;SDS011;32125;48.518;9.050;2023-05-27T04:12:20;11.80;;;7.97;;
14619;SDS011;32125;48.518;9.050;2023-05-27T04:14:46;10.37;;;7.40;;
14619;SDS011;32125;48.518;9.050;2023-05-27T04:17:12;10.43;;;7.47;;
14619;SDS011;32125;48.518;9.050;2023-05-27T04:19:38;10.47;;;7.50;;
14619;SDS011;32125;48.518;9.050;2023-05-27T04:22:04;10.50;;;7.40;;
14619;SDS011;32125;48.518;9.050;2023-05-27T04:24:30;9.87;;;7.20;;
14619;SDS011;32125;48.518;9.050;2023-05-27T04:26:56;11.07;;;7.20;;
14619;SDS011;32125;48.518;9.050;2023-05-27T04:29:22;11.63;;;7.27;;
14619;SDS011;32125;48.518;9.050;2023-05-27T04:31:48;10.53;;;7.47;;
14619;SDS011;32125;48.518;9.050;2023-05-27T04:34:15;10.87;;;6.87;;
14619;SDS011;32125;48.518;9.050;2023-05-27T04:36:42;10.20;;;6.97;;
14619;SDS011;32125;48.518;9.050;2023-05-27T04:39:14;11.13;;;6.90;;
14619;SDS011;32125;48.518;9.050;2023-05-27T04:41:43;12.23;;;7.13;;
14619;SDS011;32125;48.518;9.050;2023-05-27T04:44:10;12.07;;;6.77;;
14619;SDS011;32125;48.518;9.050;2023-05-27T04:46:36;13.83;;;6.97;;
14619;SDS011;32125;48.518;9.050;2023-05-27T04:49:08;9.53;;;6.63;;
14619;SDS011;32125;48.518;9.050;2023-05-27T04:51:35;13.50;;;7.17;;
14619;SDS011;32125;48.518;9.050;2023-05-27T04:54:01;10.50;;;6.53;;
14619;SDS011;32125;48.518;9.050;2023-05-27T04:56:27;10.03;;;6.40;;
14619;SDS011;32125;48.518;9.050;2023-05-27T04:58:53;12.93;;;7.03;;
14619;SDS011;32125;48.518;9.050;2023-05-27T05:01:20;10.57;;;6.20;;
14619;SDS011;32125;48.518;9.050;2023-05-27T05:03:50;10.67;;;6.40;;
14619;SDS011;32125;48.518;9.050;2023-05-27T05:06:18;12.73;;;6.77;;
14619;SDS011;32125;48.518;9.050;2023-05-27T05:08:44;13.27;;;6.53;;
14619;SDS011;32125;48.518;9.050;2023-05-27T05:11:11;9.60;;;6.40;;
14619;SDS011;32125;48.518;9.050;2023-05-27T05:13:37;9.40;;;6.13;;
14619;SDS011;32125;48.518;9.050;2023-05-27T05:16:05;10.37;;;5.93;;
14619;SDS011;32125;48.518;9.050;2023-05-27T05:18:33;9.30;;;6.20;;
14619;SDS011;32125;48.518;9.050;2023-05-27T05:20:59;10.80;;;6.13;;
14619;SDS011;32125;48.518;9.050;2023-05-27T06:03:18;10.83;;;5.37;;
14619;SDS011;32125;48.518;9.050;2023-05-27T06:05:48;8.93;;;5.10;;
14619;SDS011;32125;48.518;9.050;2023-05-27T06:08:14;9.70;;;5.53;;
14619;SDS011;32125;48.518;9.050;2023-05-27T06:10:40;10.17;;;5.37;;
14619;SDS011;32125;48.518;9.050;2023-05-27T06:13:06;8.97;;;5.00;;
14619;SDS011;32125;48.518;9.050;2023-05-27T06:15:36;11.50;;;5.33;;
14619;SDS011;32125;48.518;9.050;2023-05-27T06:18:02;10.03;;;4.80;;
14619;SDS011;32125;48.518;9.050;2023-05-27T06:20:28;10.43;;;5.40;;
14619;SDS011;32125;48.518;9.050;2023-05-27T06:22:54;6.87;;;4.50;;
14619;SDS011;32125;48.518;9.050;2023-05-27T06:25:20;9.47;;;4.77;;
14619;SDS011;32125;48.518;9.050;2023-05-27T06:27:46;9.00;;;4.50;;
14619;SDS011;32125;48.518;9.050;2023-05-27T06:30:15;9.20;;;4.63;;
14619;SDS011;32125;48.518;9.050;2023-05-27T06:32:41;8.53;;;4.43;;
14619;SDS011;32125;48.518;9.050;2023-05-27T06:35:07;6.30;;;3.92;;
14619;SDS011;32125;48.518;9.050;2023-05-27T06:37:33;8.52;;;4.10;;
14619;SDS011;32125;48.518;9.050;2023-05-27T06:39:59;10.23;;;4.60;;
14619;SDS011;32125;48.518;9.050;2023-05-27T06:42:34;8.43;;;4.20;;
14619;SDS011;32125;48.518;9.050;2023-05-27T06:45:00;8.85;;;4.25;;
14619;SDS011;32125;48.518;9.050;2023-05-27T06:47:29;8.52;;;3.83;;
14619;SDS011;32125;48.518;9.050;2023-05-27T06:49:57;8.35;;;4.25;;
14619;SDS011;32125;48.518;9.050;2023-05-27T06:52:23;6.53;;;3.67;;
14619;SDS011;32125;48.518;9.050;2023-05-27T06:54:49;6.95;;;3.78;;
14619;SDS011;32125;48.518;9.050;2023-05-27T06:57:21;8.23;;;4.00;;
14619;SDS011;32125;48.518;9.050;2023-05-27T07:02:37;10.68;;;4.35;;
14619;SDS011;32125;48.518;9.050;2023-05-27T07:05:03;7.70;;;4.28;;
14619;SDS011;32125;48.518;9.050;2023-05-27T07:07:29;9.90;;;4.35;;
14619;SDS011;32125;48.518;9.050;2023-05-27T07:09:56;9.40;;;4.30;;
14619;SDS011;32125;48.518;9.050;2023-05-27T07:12:22;10.23;;;4.30;;
14619;SDS011;32125;48.518;9.050;2023-05-27T07:14:53;9.27;;;4.20;;
14619;SDS011;32125;48.518;9.050;2023-05-27T07:17:19;8.07;;;3.33;;
14619;SDS011;32125;48.518;9.050;2023-05-27T07:19:47;8.10;;;3.88;;
14619;SDS011;32125;48.518;9.050;2023-05-27T07:22:13;7.88;;;3.92;;
14619;SDS011;32125;48.518;9.050;2023-05-27T07:24:43;8.50;;;3.78;;
14619;SDS011;32125;48.518;9.050;2023-05-27T07:27:11;9.85;;;4.28;;
14619;SDS011;32125;48.518;9.050;2023-05-27T07:29:37;8.27;;;3.88;;
14619;SDS011;32125;48.518;9.050;2023-05-27T07:32:03;7.07;;;3.72;;
14619;SDS011;32125;48.518;9.050;2023-05-27T07:34:31;13.07;;;4.03;;
14619;SDS011;32125;48.518;9.050;2023-05-27T07:36:57;8.32;;;4.18;;
14619;SDS011;32125;48.518;9.050;2023-05-27T07:39:26;7.72;;;3.85;;
14619;SDS011;32125;48.518;9.050;2023-05-27T07:41:52;7.60;;;4.15;;
14619;SDS011;32125;48.518;9.050;2023-05-27T07:44:18;8.13;;;3.75;;
14619;SDS011;32125;48.518;9.050;2023-05-27T07:46:44;6.50;;;3.70;;
14619;SDS011;32125;48.518;9.050;2023-05-27T07:49:10;9.00;;;3.97;;
14619;SDS011;32125;48.518;9.050;2023-05-27T07:51:38;10.00;;;4.22;;
14619;SDS011;32125;48.518;9.050;2023-05-27T07:54:04;5.07;;;3.70;;
14619;SDS011;32125;48.518;9.050;2023-05-27T07:56:30;10.57;;;4.38;;
14619;SDS011;32125;48.518;9.050;2023-05-27T07:58:56;7.88;;;3.95;;
14619;SDS011;32125;48.518;9.050;2023-05-27T08:01:22;7.82;;;4.20;;
14619;SDS011;32125;48.518;9.050;2023-05-27T08:03:50;6.50;;;3.80;;
14619;SDS011;32125;48.518;9.050;2023-05-27T08:06:16;7.22;;;4.15;;
14619;SDS011;32125;48.518;9.050;2023-05-27T08:08:45;12.05;;;4.75;;
14619;SDS011;32125;48.518;9.050;2023-05-27T08:11:15;8.50;;;3.75;;
14619;SDS011;32125;48.518;9.050;2023-05-27T08:13:41;7.30;;;3.72;;
14619;SDS011;32125;48.518;9.050;2023-05-27T08:16:10;8.13;;;3.67;;
14619;SDS011;32125;48.518;9.050;2023-05-27T08:18:36;6.93;;;3.88;;
14619;SDS011;32125;48.518;9.050;2023-05-27T08:21:02;7.32;;;3.97;;
14619;SDS011;32125;48.518;9.050;2023-05-27T08:23:31;9.82;;;4.28;;
14619;SDS011;32125;48.518;9.050;2023-05-27T08:25:58;6.88;;;3.97;;
14619;SDS011;32125;48.518;9.050;2023-05-27T08:28:24;7.30;;;3.83;;
14619;SDS011;32125;48.518;9.050;2023-05-27T08:30:50;7.90;;;3.97;;
14619;SDS011;32125;48.518;9.050;2023-05-27T08:33:16;8.40;;;4.03;;
14619;SDS011;32125;48.518;9.050;2023-05-27T08:35:42;6.50;;;3.83;;
14619;SDS011;32125;48.518;9.050;2023-05-27T08:38:11;7.60;;;4.22;;
14619;SDS011;32125;48.518;9.050;2023-05-27T08:40:37;7.20;;;3.90;;
14619;SDS011;32125;48.518;9.050;2023-05-27T08:43:07;9.02;;;4.53;;
14619;SDS011;32125;48.518;9.050;2023-05-27T08:45:33;9.77;;;4.10;;
14619;SDS011;32125;48.518;9.050;2023-05-27T08:48:00;6.75;;;4.22;;
14619;SDS011;32125;48.518;9.050;2023-05-27T08:50:28;8.15;;;4.15;;
14619;SDS011;32125;48.518;9.050;2023-05-27T08:52:56;6.18;;;3.90;;
14619;SDS011;32125;48.518;9.050;2023-05-27T08:55:25;9.25;;;4.15;;
14619;SDS011;32125;48.518;9.050;2023-05-27T08:57:55;7.65;;;3.88;;
14619;SDS011;32125;48.518;9.050;2023-05-27T09:00:26;5.63;;;3.72;;
14619;SDS011;32125;48.518;9.050;2023-05-27T09:02:53;8.85;;;4.05;;
14619;SDS011;32125;48.518;9.050;2023-05-27T09:05:27;7.93;;;4.25;;
14619;SDS011;32125;48.518;9.050;2023-05-27T09:07:54;6.70;;;4.22;;
14619;SDS011;32125;48.518;9.050;2023-05-27T09:10:21;7.97;;;4.43;;
14619;SDS011;32125;48.518;9.050;2023-05-27T09:12:49;6.75;;;3.80;;
14619;SDS011;32125;48.518;9.050;2023-05-27T09:15:17;7.88;;;4.43;;
14619;SDS011;32125;48.518;9.050;2023-05-27T09:17:44;7.80;;;4.18;;
14619;SDS011;32125;48.518;9.050;2023-05-27T09:20:11;8.98;;;4.55;;
14619;SDS011;32125;48.518;9.050;2023-05-27T09:22:39;6.50;;;4.00;;
14619;SDS011;32125;48.518;9.050;2023-05-27T09:25:06;7.55;;;4.22;;
14619;SDS011;32125;48.518;9.050;2023-05-27T09:27:32;9.25;;;4.15;;
14619;SDS011;32125;48.518;9.050;2023-05-27T09:30:05;7.38;;;4.20;;
14619;SDS011;32125;48.518;9.050;2023-05-27T09:32:36;9.70;;;4.38;;
14619;SDS011;32125;48.518;9.050;2023-05-27T09:35:12;6.72;;;4.32;;
14619;SDS011;32125;48.518;9.050;2023-05-27T09:37:38;7.38;;;3.90;;
14619;SDS011;32125;48.518;9.050;2023-05-27T09:40:06;7.70;;;4.20;;
14619;SDS011;32125;48.518;9.050;2023-05-27T09:45:07;8.10;;;4.30;;
14619;SDS011;32125;48.518;9.050;2023-05-27T09:47:41;9.75;;;3.92;;
14619;SDS011;32125;48.518;9.050;2023-05-27T09:50:15;8.55;;;4.40;;
14619;SDS011;32125;48.518;9.050;2023-05-27T09:52:43;8.05;;;4.20;;
14619;SDS011;32125;48.518;9.050;2023-05-27T09:55:10;6.15;;;3.90;;
14619;SDS011;32125;48.518;9.050;2023-05-27T09:57:37;8.68;;;4.15;;
14619;SDS011;32125;48.518;9.050;2023-05-27T10:00:04;7.32;;;4.32;;
14619;SDS011;32125;48.518;9.050;2023-05-27T10:02:49;8.23;;;4.00;;
14619;SDS011;32125;48.518;9.050;2023-05-27T10:05:17;7.95;;;4.10;;
14619;SDS011;32125;48.518;9.050;2023-05-27T10:07:47;6.95;;;4.45;;
14619;SDS011;32125;48.518;9.050;2023-05-27T10:10:17;8.32;;;3.83;;
14619;SDS011;32125;48.518;9.050;2023-05-27T10:12:46;7.70;;;3.97;;
14619;SDS011;32125;48.518;9.050;2023-05-27T10:15:27;6.28;;;4.20;;
14619;SDS011;32125;48.518;9.050;2023-05-27T10:17:54;6.75;;;4.30;;
14619;SDS011;32125;48.518;9.050;2023-05-27T10:20:40;7.45;;;3.80;;
14619;SDS011;32125;48.518;9.050;2023-05-27T10:25:39;10.60;;;4.50;;
14619;SDS011;32125;48.518;9.050;2023-05-27T10:28:22;7.28;;;4.30;;
14619;SDS011;32125;48.518;9.050;2023-05-27T10:31:13;6.43;;;4.03;;
14619;SDS011;32125;48.518;9.050;2023-05-27T10:33:42;7.07;;;4.00;;
14619;SDS011;32125;48.518;9.050;2023-05-27T10:36:21;7.03;;;4.20;;
14619;SDS011;32125;48.518;9.050;2023-05-27T10:38:54;9.40;;;4.10;;
14619;SDS011;32125;48.518;9.050;2023-05-27T10:41:20;5.65;;;4.00;;
14619;SDS011;32125;48.518;9.050;2023-05-27T10:43:54;6.63;;;4.10;;
14619;SDS011;32125;48.518;9.050;2023-05-27T10:46:23;7.07;;;4.07;;
14619;SDS011;32125;48.518;9.050;2023-05-27T10:48:52;7.20;;;4.00;;
14619;SDS011;32125;48.518;9.050;2023-05-27T10:51:18;9.45;;;4.25;;
14619;SDS011;32125;48.518;9.050;2023-05-27T10:53:46;7.63;;;4.10;;
14619;SDS011;32125;48.518;9.050;2023-05-27T10:56:12;7.55;;;4.60;;
14619;SDS011;32125;48.518;9.050;2023-05-27T10:58:41;5.05;;;4.03;;
14619;SDS011;32125;48.518;9.050;2023-05-27T11:01:11;5.10;;;3.83;;
14619;SDS011;32125;48.518;9.050;2023-05-27T11:03:41;7.00;;;3.95;;
14619;SDS011;32125;48.518;9.050;2023-05-27T11:06:11;7.18;;;4.03;;
14619;SDS011;32125;48.518;9.050;2023-05-27T11:08:38;6.07;;;4.13;;
14619;SDS011;32125;48.518;9.050;2023-05-27T11:11:08;6.22;;;4.25;;
14619;SDS011;32125;48.518;9.050;2023-05-27T11:13:36;6.43;;;4.15;;
14619;SDS011;32125;48.518;9.050;2023-05-27T11:16:04;8.80;;;4.50;;
14619;SDS011;32125;48.518;9.050;2023-05-27T11:21:06;7.65;;;4.35;;
14619;SDS011;32125;48.518;9.050;2023-05-27T11:23:42;7.25;;;4.38;;
14619;SDS011;32125;48.518;9.050;2023-05-27T11:26:24;5.53;;;4.15;;
14619;SDS011;32125;48.518;9.050;2023-05-27T11:28:56;7.60;;;4.05;;
14619;SDS011;32125;48.518;9.050;2023-05-27T11:31:29;9.45;;;4.60;;
14619;SDS011;32125;48.518;9.050;2023-05-27T11:33:56;7.57;;;4.30;;
14619;SDS011;32125;48.518;9.050;2023-05-27T11:36:24;6.32;;;3.92;;
14619;SDS011;32125;48.518;9.050;2023-05-27T11:38:52;6.15;;;4.30;;
14619;SDS011;32125;48.518;9.050;2023-05-27T11:41:22;7.63;;;4.30;;
14619;SDS011;32125;48.518;9.050;2023-05-27T11:44:01;7.32;;;4.10;;
14619;SDS011;32125;48.518;9.050;2023-05-27T11:46:36;7.07;;;4.35;;
14619;SDS011;32125;48.518;9.050;2023-05-27T11:49:25;7.40;;;4.05;;
14619;SDS011;32125;48.518;9.050;2023-05-27T11:51:54;7.15;;;3.70;;
14619;SDS011;32125;48.518;9.050;2023-05-27T11:56:50;8.52;;;4.50;;
14619;SDS011;32125;48.518;9.050;2023-05-27T11:59:17;6.68;;;4.13;;
14619;SDS011;32125;48.518;9.050;2023-05-27T12:01:44;10.77;;;4.50;;
14619;SDS011;32125;48.518;9.050;2023-05-27T12:04:10;9.43;;;4.60;;
14619;SDS011;32125;48.518;9.050;2023-05-27T12:06:36;7.90;;;4.32;;
14619;SDS011;32125;48.518;9.050;2023-05-27T12:09:12;7.13;;;4.38;;
14619;SDS011;32125;48.518;9.050;2023-05-27T12:11:39;6.57;;;4.05;;
14619;SDS011;32125;48.518;9.050;2023-05-27T12:14:05;7.25;;;4.40;;
14619;SDS011;32125;48.518;9.050;2023-05-27T12:16:33;7.78;;;4.65;;
14619;SDS011;32125;48.518;9.050;2023-05-27T12:19:02;8.38;;;4.30;;
14619;SDS011;32125;48.518;9.050;2023-05-27T12:21:29;6.32;;;4.32;;
14619;SDS011;32125;48.518;9.050;2023-05-27T12:23:55;8.27;;;4.55;;
14619;SDS011;32125;48.518;9.050;2023-05-27T12:26:21;7.93;;;4.47;;
14619;SDS011;32125;48.518;9.050;2023-05-27T12:28:47;6.13;;;4.53;;
14619;SDS011;32125;48.518;9.050;2023-05-27T12:31:14;7.68;;;4.35;;
14619;SDS011;32125;48.518;9.050;2023-05-27T12:33:40;7.95;;;4.78;;
14619;SDS011;32125;48.518;9.050;2023-05-27T12:36:07;6.97;;;5.05;;
14619;SDS011;32125;48.518;9.050;2023-05-27T12:38:36;6.93;;;4.82;;
14619;SDS011;32125;48.518;9.050;2023-05-27T12:41:02;7.13;;;4.95;;
14619;SDS011;32125;48.518;9.050;2023-05-27T12:43:29;8.50;;;5.50;;
14619;SDS011;32125;48.518;9.050;2023-05-27T12:45:55;9.85;;;5.10;;
14619;SDS011;32125;48.518;9.050;2023-05-27T12:48:24;11.23;;;5.15;;
14619;SDS011;32125;48.518;9.050;2023-05-27T12:50:50;8.07;;;5.10;;
14619;SDS011;32125;48.518;9.050;2023-05-27T12:53:18;6.57;;;5.25;;
14619;SDS011;32125;48.518;9.050;2023-05-27T12:55:44;9.82;;;5.03;;
14619;SDS011;32125;48.518;9.050;2023-05-27T12:58:10;8.63;;;6.75;;
14619;SDS011;32125;48.518;9.050;2023-05-27T13:00:36;8.00;;;5.00;;
14619;SDS011;32125;48.518;9.050;2023-05-27T13:03:02;6.63;;;5.05;;
14619;SDS011;32125;48.518;9.050;2023-05-27T13:05:29;9.50;;;5.30;;
14619;SDS011;32125;48.518;9.050;2023-05-27T13:08:01;7.60;;;5.10;;
14619;SDS011;32125;48.518;9.050;2023-05-27T13:10:44;8.32;;;4.80;;
14619;SDS011;32125;48.518;9.050;2023-05-27T13:13:12;7.80;;;5.45;;
14619;SDS011;32125;48.518;9.050;2023-05-27T13:15:38;10.23;;;5.80;;
14619;SDS011;32125;48.518;9.050;2023-05-27T13:18:04;8.10;;;5.47;;
14619;SDS011;32125;48.518;9.050;2023-05-27T13:20:31;6.07;;;5.13;;
14619;SDS011;32125;48.518;9.050;2023-05-27T13:22:58;8.77;;;5.45;;
14619;SDS011;32125;48.518;9.050;2023-05-27T13:25:26;6.97;;;5.13;;
14619;SDS011;32125;48.518;9.050;2023-05-27T13:27:54;9.93;;;5.43;;
14619;SDS011;32125;48.518;9.050;2023-05-27T13:30:23;8.07;;;4.95;;
14619;SDS011;32125;48.518;9.050;2023-05-27T13:32:51;8.95;;;5.30;;
14619;SDS011;32125;48.518;9.050;2023-05-27T13:35:17;7.35;;;5.25;;
14619;SDS011;32125;48.518;9.050;2023-05-27T13:37:43;7.63;;;4.80;;
14619;SDS011;32125;48.518;9.050;2023-05-27T13:40:11;7.70;;;4.82;;
14619;SDS011;32125;48.518;9.050;2023-05-27T13:42:37;8.25;;;5.20;;
14619;SDS011;32125;48.518;9.050;2023-05-27T13:45:05;8.93;;;5.90;;
14619;SDS011;32125;48.518;9.050;2023-05-27T13:47:32;6.47;;;5.55;;
14619;SDS011;32125;48.518;9.050;2023-05-27T13:49:58;9.25;;;5.70;;
14619;SDS011;32125;48.518;9.050;2023-05-27T13:52:29;9.05;;;5.65;;
14619;SDS011;32125;48.518;9.050;2023-05-27T13:54:55;10.60;;;5.53;;
14619;SDS011;32125;48.518;9.050;2023-05-27T13:57:21;7.80;;;5.43;;
14619;SDS011;32125;48.518;9.050;2023-05-27T13:59:47;9.02;;;5.47;;
14619;SDS011;32125;48.518;9.050;2023-05-27T14:02:15;11.00;;;5.18;;
14619;SDS011;32125;48.518;9.050;2023-05-27T14:04:41;6.95;;;5.18;;
14619;SDS011;32125;48.518;9.050;2023-05-27T14:07:07;9.35;;;5.43;;
14619;SDS011;32125;48.518;9.050;2023-05-27T14:09:34;8.85;;;5.20;;
14619;SDS011;32125;48.518;9.050;2023-05-27T14:12:00;8.10;;;5.10;;
14619;SDS011;32125;48.518;9.050;2023-05-27T14:14:31;10.00;;;5.22;;
14619;SDS011;32125;48.518;9.050;2023-05-27T14:16:59;7.63;;;4.72;;
14619;SDS011;32125;48.518;9.050;2023-05-27T14:19:27;8.60;;;5.60;;
14619;SDS011;32125;48.518;9.050;2023-05-27T14:21:53;8.55;;;5.10;;
14619;SDS011;32125;48.518;9.050;2023-05-27T14:24:19;7.13;;;4.93;;
14619;SDS011;32125;48.518;9.050;2023-05-27T14:26:45;9.93;;;4.85;;
14619;SDS011;32125;48.518;9.050;2023-05-27T14:29:11;8.68;;;5.05;;
14619;SDS011;32125;48.518;9.050;2023-05-27T14:31:40;10.48;;;4.90;;
14619;SDS011;32125;48.518;9.050;2023-05-27T14:34:08;7.78;;;4.95;;
14619;SDS011;32125;48.518;9.050;2023-05-27T14:36:34;8.18;;;5.43;;
14619;SDS011;32125;48.518;9.050;2023-05-27T14:39:03;8.85;;;4.90;;
14619;SDS011;32125;48.518;9.050;2023-05-27T14:41:33;7.05;;;5.10;;
14619;SDS011;32125;48.518;9.050;2023-05-27T14:43:59;8.27;;;5.40;;
14619;SDS011;32125;48.518;9.050;2023-05-27T14:46:25;7.90;;;4.82;;
14619;SDS011;32125;48.518;9.050;2023-05-27T14:48:51;8.45;;;5.03;;
14619;SDS011;32125;48.518;9.050;2023-05-27T14:51:17;7.38;;;5.05;;
14619;SDS011;32125;48.518;9.050;2023-05-27T14:53:43;7.95;;;4.93;;
14619;SDS011;32125;48.518;9.050;2023-05-27T14:56:09;9.60;;;5.40;;
14619;SDS011;32125;48.518;9.050;2023-05-27T14:58:36;6.72;;;5.07;;
14619;SDS011;32125;48.518;9.050;2023-05-27T15:01:04;9.48;;;5.07;;
14619;SDS011;32125;48.518;9.050;2023-05-27T15:03:30;7.07;;;4.90;;
14619;SDS011;32125;48.518;9.050;2023-05-27T15:05:56;7.30;;;5.00;;
14619;SDS011;32125;48.518;9.050;2023-05-27T15:08:25;10.65;;;5.13;;
14619;SDS011;32125;48.518;9.050;2023-05-27T15:10:55;10.43;;;5.25;;
14619;SDS011;32125;48.518;9.050;2023-05-27T15:13:23;15.10;;;5.18;;
14619;SDS011;32125;48.518;9.050;2023-05-27T15:15:49;7.65;;;5.05;;
14619;SDS011;32125;48.518;9.050;2023-05-27T15:18:15;7.93;;;4.80;;
14619;SDS011;32125;48.518;9.050;2023-05-27T15:20:41;9.65;;;5.03;;
14619;SDS011;32125;48.518;9.050;2023-05-27T15:23:07;7.32;;;4.80;;
14619;SDS011;32125;48.518;9.050;2023-05-27T15:25:34;7.60;;;4.90;;
14619;SDS011;32125;48.518;9.050;2023-05-27T15:28:03;6.57;;;4.70;;
14619;SDS011;32125;48.518;9.050;2023-05-27T15:30:29;9.13;;;4.70;;
14619;SDS011;32125;48.518;9.050;2023-05-27T15:32:55;7.75;;;4.93;;
14619;SDS011;32125;48.518;9.050;2023-05-27T15:35:21;8.40;;;4.60;;
14619;SDS011;32125;48.518;9.050;2023-05-27T15:37:47;9.50;;;4.45;;
14619;SDS011;32125;48.518;9.050;2023-05-27T15:40:13;7.75;;;4.82;;
14619;SDS011;32125;48.518;9.050;2023-05-27T15:42:39;9.30;;;4.63;;
14619;SDS011;32125;48.518;9.050;2023-05-27T15:45:05;5.47;;;4.20;;